Maria — SV7156 — position and weather

sailwx.info

Track history (hours):
 
Tides and Currents Weather Stations Pressure Air Temp Water Temp Dewpoint Dewpoint Depression Visibility Wind Speed Wind Dir Waves Ship Positions

Maria

Last reported at 2014-Jul-29 10:23 UTC. Time now 2014-Jul-29 12:46 UTC.
Position N 37°58' E 023°35'.

Length 74 m; draft 4.5 m.

Type: Ship. MMSI: 237493000.

Date/timePositionNaut miles runAvg speedWind from/ knotsBaromVisibWave heightAir tempDewpointWater temp
2014-Jul-29 10:23N 37°58' E 023°35'1 0.7
2014-Jul-29 09:33N 37°57' E 023°35'0 0.0
2014-Jul-29 08:33N 37°57' E 023°35'1 0.6
2014-Jul-29 07:33N 37°58' E 023°35'2 0.2
2014-Jul-28 16:33N 37°55' E 023°33'0 0.3
2014-Jul-28 15:33N 37°55' E 023°33'1 1.2
2014-Jul-28 14:33N 37°54' E 023°33'1 0.9
2014-Jul-28 13:33N 37°53' E 023°33'0 0.0
2014-Jul-28 12:33N 37°53' E 023°33'4 4.1
2014-Jul-28 11:33N 37°57' E 023°36'1 0.6
2014-Jul-28 10:33N 37°57' E 023°36'0 0.0
2014-Jul-28 09:33N 37°57' E 023°36'1 0.0
2014-Jul-26 20:20N 37°58' E 023°35'3 3.6
2014-Jul-26 19:33N 38°00' E 023°33'2 2.1
2014-Jul-26 18:26N 38°02' E 023°36'0 0.0
2014-Jul-26 17:33N 38°02' E 023°36'0 0.1
2014-Jul-26 16:33N 38°02' E 023°36'1 0.8
2014-Jul-26 15:33N 38°01' E 023°35'0 0.0
2014-Jul-26 14:33N 38°01' E 023°35'0 0.0
2014-Jul-26 13:33N 38°01' E 023°35'0 0.0
2014-Jul-26 12:32N 38°01' E 023°35'0 0.0
2014-Jul-26 11:21N 38°01' E 023°35'0 0.0
2014-Jul-26 10:30N 38°01' E 023°35'0 0.0
2014-Jul-26 09:29N 38°01' E 023°35'0 0.0
2014-Jul-26 08:31N 38°01' E 023°35'0 0.0
2014-Jul-26 07:33N 38°01' E 023°35'0 0.0
2014-Jul-26 06:33N 38°01' E 023°35'0 0.0
2014-Jul-26 05:33N 38°02' E 023°35'4 0.2
2014-Jul-25 10:34N 37°57' E 023°35'0 0.3
2014-Jul-25 09:33N 37°57' E 023°35'0 0.0
2014-Jul-25 08:34N 37°57' E 023°35'0 0.0
2014-Jul-25 07:33N 37°57' E 023°35'1 0.1
2014-Jul-24 19:08N 37°58' E 023°35'3 4.6
2014-Jul-24 18:33N 37°55' E 023°34'2 1.5
2014-Jul-24 17:33N 37°54' E 023°34'4 3.9
2014-Jul-24 16:33N 37°57' E 023°35'0 0.0
2014-Jul-24 15:33N 37°57' E 023°35'0 0.0
2014-Jul-24 14:33N 37°57' E 023°35'0 0.0
2014-Jul-24 13:33N 37°57' E 023°35'1 1.1
2014-Jul-24 12:33N 37°58' E 023°37'0 0.0
2014-Jul-24 11:33N 37°58' E 023°37'0 0.0
2014-Jul-24 10:15N 37°58' E 023°37'0 0.0
2014-Jul-24 09:33N 37°58' E 023°37'0 0.0
2014-Jul-24 08:33N 37°58' E 023°37'1 0.7
2014-Jul-24 07:33N 37°57' E 023°36'1 1.1
2014-Jul-24 06:33N 37°58' E 023°35'0 0.0
2014-Jul-24 05:33N 37°58' E 023°35'0 0.0
2014-Jul-24 04:33N 37°58' E 023°35'0 0.0
2014-Jul-23 18:16N 37°58' E 023°35'3 3.7
2014-Jul-23 17:33N 38°00' E 023°33'3 2.0
2014-Jul-23 16:17N 38°02' E 023°36'0 0.0
2014-Jul-23 14:23N 38°02' E 023°36'0 0.0
2014-Jul-23 13:27N 38°02' E 023°36'1 0.9
2014-Jul-23 12:28N 38°02' E 023°35'0 0.0
2014-Jul-23 11:20N 38°02' E 023°35'1 0.7
2014-Jul-23 09:33N 38°01' E 023°34'  
Track history (hours):
 
Tides and Currents Weather Stations Pressure Air Temp Water Temp Dewpoint Dewpoint Depression Visibility Wind Speed Wind Dir Waves Ship Positions

Maria

Last reported at 2014-Jul-29 10:23 UTC. Time now 2014-Jul-29 12:46 UTC.
Position N 37°58' E 023°35'.

Length 74 m; draft 4.5 m.

Type: Ship. MMSI: 237493000.

Date/timePositionNaut miles runAvg speedWind from/ knotsBaromVisibWave heightAir tempDewpointWater temp
2014-Jul-29 10:23N 37°58' E 023°35'1 0.7
2014-Jul-29 09:33N 37°57' E 023°35'0 0.0
2014-Jul-29 08:33N 37°57' E 023°35'1 0.6
2014-Jul-29 07:33N 37°58' E 023°35'2 0.2
2014-Jul-28 16:33N 37°55' E 023°33'0 0.3
2014-Jul-28 15:33N 37°55' E 023°33'1 1.2
2014-Jul-28 14:33N 37°54' E 023°33'1 0.9
2014-Jul-28 13:33N 37°53' E 023°33'0 0.0
2014-Jul-28 12:33N 37°53' E 023°33'4 4.1
2014-Jul-28 11:33N 37°57' E 023°36'1 0.6
2014-Jul-28 10:33N 37°57' E 023°36'0 0.0
2014-Jul-28 09:33N 37°57' E 023°36'1 0.0
2014-Jul-26 20:20N 37°58' E 023°35'3 3.6
2014-Jul-26 19:33N 38°00' E 023°33'2 2.1
2014-Jul-26 18:26N 38°02' E 023°36'0 0.0
2014-Jul-26 17:33N 38°02' E 023°36'0 0.1
2014-Jul-26 16:33N 38°02' E 023°36'1 0.8
2014-Jul-26 15:33N 38°01' E 023°35'0 0.0
2014-Jul-26 14:33N 38°01' E 023°35'0 0.0
2014-Jul-26 13:33N 38°01' E 023°35'0 0.0
2014-Jul-26 12:32N 38°01' E 023°35'0 0.0
2014-Jul-26 11:21N 38°01' E 023°35'0 0.0
2014-Jul-26 10:30N 38°01' E 023°35'0 0.0
2014-Jul-26 09:29N 38°01' E 023°35'0 0.0
2014-Jul-26 08:31N 38°01' E 023°35'0 0.0
2014-Jul-26 07:33N 38°01' E 023°35'0 0.0
2014-Jul-26 06:33N 38°01' E 023°35'0 0.0
2014-Jul-26 05:33N 38°02' E 023°35'4 0.2
2014-Jul-25 10:34N 37°57' E 023°35'0 0.3
2014-Jul-25 09:33N 37°57' E 023°35'0 0.0
2014-Jul-25 08:34N 37°57' E 023°35'0 0.0
2014-Jul-25 07:33N 37°57' E 023°35'1 0.1
2014-Jul-24 19:08N 37°58' E 023°35'3 4.6
2014-Jul-24 18:33N 37°55' E 023°34'2 1.5
2014-Jul-24 17:33N 37°54' E 023°34'4 3.9
2014-Jul-24 16:33N 37°57' E 023°35'0 0.0
2014-Jul-24 15:33N 37°57' E 023°35'0 0.0
2014-Jul-24 14:33N 37°57' E 023°35'0 0.0
2014-Jul-24 13:33N 37°57' E 023°35'1 1.1
2014-Jul-24 12:33N 37°58' E 023°37'0 0.0
2014-Jul-24 11:33N 37°58' E 023°37'0 0.0
2014-Jul-24 10:15N 37°58' E 023°37'0 0.0
2014-Jul-24 09:33N 37°58' E 023°37'0 0.0
2014-Jul-24 08:33N 37°58' E 023°37'1 0.7
2014-Jul-24 07:33N 37°57' E 023°36'1 1.1
2014-Jul-24 06:33N 37°58' E 023°35'0 0.0
2014-Jul-24 05:33N 37°58' E 023°35'0 0.0
2014-Jul-24 04:33N 37°58' E 023°35'0 0.0
2014-Jul-23 18:16N 37°58' E 023°35'3 3.7
2014-Jul-23 17:33N 38°00' E 023°33'3 2.0
2014-Jul-23 16:17N 38°02' E 023°36'0 0.0
2014-Jul-23 14:23N 38°02' E 023°36'0 0.0
2014-Jul-23 13:27N 38°02' E 023°36'1 0.9
2014-Jul-23 12:28N 38°02' E 023°35'0 0.0
2014-Jul-23 11:20N 38°02' E 023°35'1 0.7
2014-Jul-23 09:33N 38°01' E 023°34'  

Dump ship's entire track history